Tiempo atmosférico en la estación meteorológica de Aguilar De Campoo, Palencia (910 m.)



Fecha
DESCASC
Temp. máxima en grados centígrados (hora)
DESCASC
Temp. mínima en grados centígrados (hora)
DESCASC
Temp. media en grados centígrados
DESCASC
Racha de viento máxima en m/sg (hora)
DESCASC
Velocidad máxima media en intervalos de 10 minutos(hora)
DESCASC
Precipitaciones diarias en mm
DESCASC
Precipitaciones de 00:00 a 06:00 en mm
DESCASC
Precipitaciones de 06:00 a 12:00 en mm
DESCASC
Precipitaciones de 12:00 a 18:00 en mm
DESCASC
Precipitaciones de 18:00 a 24:00 en mm
DESCASC
22-01-2020 6.1 (15:10) 0.7 (23:59) 3.4 10 (02:20) 4.44 (12:40) 1 0 1 0 0
21-01-2020 3.3 (12:30) 0 (03:50) 1.6 13.06 (15:40) 5.83 (12:00) 0 0 0 0 0
20-01-2020 1.6 (12:30) -1 (07:10) 0.3 14.44 (10:20) 6.11 (05:40) 0 0 0 0 0
19-01-2020 4 (14:10) -0.5 (-00:0) 1.8 16.39 (15:40) 7.78 (14:00) 3.6 1.4 1 0 1.2
18-01-2020 6.8 (16:40) -0.4 (00:00) 3.2 6.67 (13:50) 3.33 (17:40) 7.4 0 0 7.4 0
17-01-2020 8.5 (15:20) 0.1 (00:00) 4.3 10 (12:30) 5 (04:40) 1.8 1.8 0 0 0
16-01-2020 11.6 (15:10) 6.5 (00:00) 9.1 14.72 (15:50) 6.67 (14:50) 0.8 0.6 0 0.2 0
15-01-2020 8.4 (14:30) 5.5 (00:00) 6.9 15.83 (05:30) 7.22 (06:10) 0.8 0.4 0.4 0 0
14-01-2020 6.5 (17:00) 0.2 (00:00) 3.4 9.72 (15:50) 4.72 (10:20) 0 0 0 0 0
13-01-2020 1.9 (15:40) -5.9 (-00:0) -2 9.72 (15:30) 5.28 (13:30) 0 0 0 0 0
12-01-2020 9.7 (16:30) -5.1 (03:00) 2.3 3.33 (01:20) 2.22 (01:20) 0 0 0 0 0
11-01-2020 9.9 (16:00) -6.4 (-00:0) 1.7 4.72 (03:30) 2.78 (02:20) 0 0 0 0 0
10-01-2020 8 (15:00) -1 (-00:0) 3.5 6.94 (15:00) 3.61 (18:20) 0 0 0 0 0
09-01-2020 8.5 (15:20) -1.5 (-00:0) 3.5 9.17 (12:40) 6.11 (12:40) 0 0 0 0 0
08-01-2020 13.6 (14:40) -2.9 (-00:0) 5.4 3.61 (09:10) 2.5 (12:40) 0 0 0 0 0
07-01-2020 11.1 (14:30) -4.8 (-00:0) 3.2 4.17 (02:40) 3.06 (02:40) 0 0 0 0 0
06-01-2020 3.6 (14:50) -3.5 (-00:0) 0 4.44 (16:30) 2.78 (15:10) 0 0 0 0 0
05-01-2020 14 (15:50) -2.9 (-00:0) 5.5 4.17 (03:40) 3.06 (03:40) 0 0 0 0 0
04-01-2020 7.5 (14:50) -2.5 (-00:0) 2.5 9.17 (15:00) 5.28 (15:00) 0 0 0 0 0
03-01-2020 4 (16:10) -1.9 (-00:0) 1.1 4.72 (04:50) 2.5 (04:50) 0.6 0 0.6 0 0
02-01-2020 8 (14:20) -4.2 (-00:0) 1.9 7.78 (17:10) 4.72 (15:30) 0 0 0 0 0
01-01-2020 11 (15:20) -6.3 (-00:0) 2.3 3.61 (15:40) 2.5 (15:30) 0 0 0 0 0
31-12-2019 14.7 (16:00) -5.4 (-00:0) 4.6 3.61 (02:50) 2.22 (02:50) 0 0 0 0 0
30-12-2019 -- (--) -- (--) -- -- (--) -- (--) -- 0 0 0 --
29-12-2019 13.2 (15:40) -5.8 (-00:0) 3.7 3.89 (21:10) 2.5 (21:00) 0 0 0 0 0
28-12-2019 13.5 (15:00) -5.3 (-00:0) 4.1 3.61 (22:00) 1.94 (04:50) 0 0 0 0 0
27-12-2019 9.7 (15:50) -6.3 (-00:0) 1.7 3.61 (20:30) 2.5 (20:30) 0 0 0 0 0
26-12-2019 8.3 (01:40) -1.4 (-00:0) 3.5 7.5 (01:30) 3.89 (01:20) 0 0 0 0 0
25-12-2019 14.3 (14:50) 2.7 (00:00) 8.5 7.22 (17:50) 4.44 (18:00) 0 0 0 0 0

Gráficas

Temp. máximas Temp. mínimas Temp. medias Precipitaciones Rachas de viento máximas Velocidades máximas media en intervalos de 10 minutos

Datos horarios

Fecha y hora oficial Temperatura (ºC) Velocidad del viento (km/h) Dirección del viento Racha (km/h) Dirección de racha Precipitación (mm) Presión (hPa) Tendencia (hPa) Humedad (%)
2020-01-23 23:00:00 -- -- -- -- -- -- -- -- --
2020-01-23 22:00:00 0.5 0 Calma 14 Este 0 -- -- 92
2020-01-23 21:00:00 1.8 5 Este 10 Este 0 -- -- 91
2020-01-23 20:00:00 3.1 0 Calma 9 Este 0 -- -- 86
2020-01-23 19:00:00 4.6 3 Este 9 Noroeste 0 -- -- 81
2020-01-23 18:00:00 6.8 3 Oeste 13 Oeste 0 -- -- 70
2020-01-23 17:00:00 7.5 8 Oeste 14 Oeste 0 -- -- 68
2020-01-23 16:00:00 7.6 7 Noroeste 16 Noroeste 0 -- -- 65
2020-01-23 15:00:00 7.9 8 Oeste 15 Sudoeste 0 -- -- 71
2020-01-23 14:00:00 6.5 6 Sur 9 Sur 0 -- -- 82
2020-01-23 13:00:00 4.2 6 Sudoeste 9 Sur 0 -- -- 91
2020-01-23 12:00:00 1.8 3 Noroeste 10 Norte 0 -- -- 100
2020-01-23 11:00:00 0.6 6 Norte 9 Norte 0 -- -- 100
2020-01-23 10:00:00 0 0 Calma 9 Sur 0 -- -- 100
2020-01-23 09:00:00 -0.5 3 Sur 10 Este 0 -- -- 99
2020-01-23 08:00:00 -1.2 7 Este 12 Este 0 -- -- 98
2020-01-23 07:00:00 -1.4 2 Noroeste 6 Nordeste 0 -- -- 97
2020-01-23 06:00:00 -0.5 7 Este 11 Este 0 -- -- 97
2020-01-23 05:00:00 0.4 0 Calma 8 Este 0 -- -- 98
2020-01-23 04:00:00 0.4 4 Este 8 Este 0 -- -- 98
2020-01-23 03:00:00 0.2 4 Este 15 Este 0 -- -- 98
2020-01-23 02:00:00 -0.2 0 Calma 12 Este 0 -- -- 96
2020-01-23 01:00:00 1 10 Este 14 Este 0 -- -- 96
2020-01-23 00:00:00 0.7 0 Calma 5 Este 0 -- -- 94
2020-01-22 23:00:00 2.8 0 Calma 12 Sudeste 0 -- -- 91
2020-01-22 22:00:00 3.6 5 Sudeste 14 Sudeste 0 -- -- 92
2020-01-22 21:00:00 3 5 Sudeste 14 Sudeste 0 -- -- 93
2020-01-22 20:00:00 3 7 Sudeste 11 Sudeste 0 -- -- 91
2020-01-22 19:00:00 3.3 7 Sudeste 19 Sur 0 -- -- 88
2020-01-22 18:00:00 3.9 10 Sudeste 22 Sudeste 0 -- -- 88
2020-01-22 17:00:00 5.2 10 Sudeste 25 Sudeste 0 -- -- 85
2020-01-22 16:00:00 5.8 14 Sur 21 Sur 0 -- -- 81
2020-01-22 15:00:00 6 10 Sudeste 24 Sudeste 0 -- -- 82
2020-01-22 14:00:00 5.6 9 Sur 22 Sudeste 0 -- -- 85
2020-01-22 13:00:00 5.3 14 Sudeste 26 Sudeste 0 -- -- 89
2020-01-22 12:00:00 5.1 12 Sudeste 24 Sudeste 0 -- -- 91
2020-01-22 11:00:00 4.6 9 Sur 19 Este 0 -- -- 95
2020-01-22 10:00:00 3.3 3 Norte 12 Este 0 -- -- 97
2020-01-22 09:00:00 3.1 6 Sudeste 13 Sur 0.4 -- -- 96
2020-01-22 08:00:00 3.3 7 Sur 25 Sudeste 0.2 -- -- 95
2020-01-22 07:00:00 3.5 7 Sudeste 22 Sudeste 0.4 -- -- 95
2020-01-22 06:00:00 3.7 8 Sur 26 Sudeste 0 -- -- 95
2020-01-22 05:00:00 3.9 9 Sudeste 29 Sudeste 0 -- -- 93
2020-01-22 04:00:00 4.2 10 Sur 24 Sudeste 0 -- -- 90
2020-01-22 03:00:00 4.1 8 Sur 36 Sudeste 0 -- -- 90
2020-01-22 02:00:00 3.5 13 Sudeste 27 Sudeste 0 -- -- 93
2020-01-22 01:00:00 3.1 6 Sudeste 24 Sudeste 0 -- -- 93
2020-01-22 00:00:00 3 8 Sur 37 Sudeste 0 -- -- 92
2020-01-21 23:00:00 2.8 14 Sudeste 35 Sudeste 0 -- -- 92
2020-01-21 22:00:00 2.3 13 Sudeste 35 Sur 0 -- -- 91
2020-01-21 21:00:00 2 10 Sudeste 28 Sudeste 0 -- -- 88
2020-01-21 20:00:00 1.8 13 Sudeste 39 Este 0 -- -- 88
2020-01-21 19:00:00 1.9 10 Sudeste 34 Sudeste 0 -- -- 87
2020-01-21 18:00:00 1.8 11 Sudeste 32 Sudeste 0 -- -- 88
2020-01-21 17:00:00 1.4 10 Sudeste 40 Sudeste 0 -- -- 92
2020-01-21 16:00:00 1.5 16 Sudeste 47 Sudeste 0 -- -- 90
2020-01-21 15:00:00 2.1 14 Sudeste 34 Sudeste 0 -- -- 86
2020-01-21 14:00:00 1.9 14 Sur 34 Sudeste 0 -- -- 85
2020-01-21 13:00:00 3 15 Sudeste 39 Este 0 -- -- 76
2020-01-21 12:00:00 2.4 21 Sudeste 41 Sudeste 0 -- -- 80
2020-01-21 11:00:00 1.6 7 Sur 29 Sudeste 0 -- -- 79
2020-01-21 10:00:00 1.3 14 Sudeste 42 Este 0 -- -- 80
2020-01-21 09:00:00 1.2 14 Sudeste 31 Este 0 -- -- 79
2020-01-21 08:00:00 0.8 8 Sudeste 33 Sur 0 -- -- 81
2020-01-21 07:00:00 0.4 8 Sudeste 29 Este 0 -- -- 80
2020-01-21 06:00:00 0.2 6 Sur 22 Este 0 -- -- 81
2020-01-21 05:00:00 0 6 Sudeste 24 Sur 0 -- -- 83
2020-01-21 04:00:00 0 9 Sudeste 29 Sudeste 0 -- -- 84
2020-01-21 03:00:00 0.4 13 Sudeste 34 Sudeste 0 -- -- 82
2020-01-21 02:00:00 0.6 16 Sudeste 37 Sudeste 0 -- -- 83
2020-01-21 01:00:00 0.6 12 Sudeste 31 Sudeste 0 -- -- 85
2020-01-21 00:00:00 0.3 13 Sudeste 34 Sudeste 0 -- -- 88
2020-01-20 23:00:00 -0.1 12 Sudeste 33 Sudeste 0 -- -- 90
2020-01-20 22:00:00 -0.4 20 Sudeste 44 Este 0 -- -- 90
2020-01-20 21:00:00 -0.4 17 Sudeste 43 Sudeste 0 -- -- 87
2020-01-20 20:00:00 -0.4 14 Sudeste 38 Este 0 -- -- 85
2020-01-20 19:00:00 -0.3 11 Sudeste 37 Este 0 -- -- 79
2020-01-20 18:00:00 -0.3 12 Sudeste 33 Sudeste 0 -- -- 77
2020-01-20 17:00:00 0.4 14 Sudeste 40 Sudeste 0 -- -- 75
2020-01-20 16:00:00 1.1 13 Sudeste 36 Este 0 -- -- 71
2020-01-20 15:00:00 0.5 13 Sudeste 40 Sudeste 0 -- -- 73
2020-01-20 14:00:00 0.1 18 Sudeste 44 Este 0 -- -- 76
2020-01-20 13:00:00 1.1 18 Sudeste 38 Este 0 -- -- 67
2020-01-20 12:00:00 0.9 13 Sudeste 42 Sudeste 0 -- -- 66
2020-01-20 11:00:00 -0.2 17 Sudeste 52 Este 0 -- -- 68
2020-01-20 10:00:00 -0.4 17 Sudeste 43 Este 0 -- -- 74
2020-01-20 09:00:00 -0.9 18 Sur 46 Sur 0 -- -- 83
2020-01-20 08:00:00 -0.7 19 Sudeste 41 Sudeste 0 -- -- 74
2020-01-20 07:00:00 -0.9 17 Sudeste 37 Sudeste 0 -- -- 79
2020-01-20 06:00:00 -0.5 14 Sudeste 48 Sudeste 0 -- -- 76
2020-01-20 05:00:00 -0.4 16 Sur 49 Sudeste 0 -- -- 76
2020-01-20 04:00:00 -0.3 13 Sudeste 42 Sudeste 0 -- -- 75
2020-01-20 03:00:00 0 18 Sudeste 43 Sudeste 0 -- -- 71
2020-01-20 02:00:00 -0.1 12 Sudeste 41 Sudeste 0 -- -- 76
2020-01-20 01:00:00 -0.1 15 Sudeste 49 Sudeste 0 -- -- 75
2020-01-20 00:00:00 -0.4 13 Sudeste 37 Sudeste 0.8 -- -- 88
2020-01-19 23:00:00 0.4 18 Sudeste 52 Sudeste 0.2 -- -- 77
2020-01-19 22:00:00 0.7 18 Sudeste 45 Este 0.2 -- -- 77
2020-01-19 21:00:00 1.3 16 Sudeste 46 Este 0 -- -- 70
2020-01-19 20:00:00 0.9 13 Sudeste 46 Este 0 -- -- 75
2020-01-19 19:00:00 1.2 20 Sudeste 46 Sudeste 0 -- -- 64
2020-01-19 18:00:00 1.5 19 Sudeste 43 Este 0 -- -- 64
2020-01-19 17:00:00 2.3 20 Sudeste 51 Sudeste 0 -- -- 65
2020-01-19 16:00:00 3.1 25 Sudeste 59 Este 0 -- -- 61
2020-01-19 15:00:00 3.3 26 Sudeste 54 Este 0 -- -- 64
2020-01-19 14:00:00 3.4 28 Sudeste 54 Este 0 -- -- 63
2020-01-19 13:00:00 3.1 23 Este 50 Este 0 -- -- 76
2020-01-19 12:00:00 3.2 12 Sudeste 50 Este 0 -- -- 75
2020-01-19 11:00:00 2.6 19 Sudeste 51 Este 0 -- -- 76
2020-01-19 10:00:00 2.7 16 Sudeste 44 Sudeste 0 -- -- 78
2020-01-19 09:00:00 2.4 16 Sudeste 47 Este 0.2 -- -- 86
2020-01-19 08:00:00 2.5 10 Sudeste 28 Sudeste 0.4 -- -- 93
2020-01-19 07:00:00 2.6 9 Sudeste 22 Sudeste 0.4 -- -- 94
2020-01-19 06:00:00 2.8 4 Sur 24 Sudeste 0.4 -- -- 96
2020-01-19 05:00:00 2.6 7 Sudeste 24 Sudeste 1 -- -- 100
2020-01-19 04:00:00 0.3 6 Este 12 Este 0 -- -- 100
2020-01-19 03:00:00 -0.1 0 Calma 11 Este 0 -- -- 100
2020-01-19 02:00:00 0.4 6 Este 11 Sudeste 0 -- -- 99
2020-01-19 01:00:00 0.7 0 Calma 6 Sur 0 -- -- 99
2020-01-19 00:00:00 0.6 4 Este 6 Este 0 -- -- 99
2020-01-18 23:00:00 1.1 7 Este 12 Este 0 -- -- 98
2020-01-18 22:00:00 1.5 5 Este 12 Este 0 -- -- 99
2020-01-18 21:00:00 1.5 3 Nordeste 5 Norte 0 -- -- 97
2020-01-18 20:00:00 2.3 0 Calma 19 Sur 0 -- -- 95
2020-01-18 19:00:00 3.6 9 Sur 19 Sur 0 -- -- 94
2020-01-18 18:00:00 4.8 3 Norte 19 Sur 5.2 -- -- 92
2020-01-18 17:00:00 6.5 3 Sur 8 Norte 0 -- -- 95
2020-01-18 16:00:00 5.8 5 Norte 16 Norte 1.8 -- -- 98
2020-01-18 15:00:00 6.1 8 Norte 23 Noroeste 0.2 -- -- 97
2020-01-18 14:00:00 5.3 9 Noroeste 24 Noroeste 0.2 -- -- 98
2020-01-18 13:00:00 4.3 6 Norte 21 Norte 0 -- -- 97
2020-01-18 12:00:00 3.6 9 Norte 17 Norte 0 -- -- 96
2020-01-18 11:00:00 3 5 Oeste 12 Noroeste 0 -- -- 92
2020-01-18 10:00:00 2.3 3 Norte 10 Norte 0 -- -- 93
2020-01-18 09:00:00 1.8 5 Noroeste 12 Noroeste 0 -- -- 94
2020-01-18 08:00:00 1 2 Noroeste 7 Norte 0 -- -- 94
2020-01-18 07:00:00 1.6 2 Noroeste 6 Norte 0 -- -- 95
2020-01-18 06:00:00 0.5 0 Calma 8 Sudeste 0 -- -- 96
2020-01-18 05:00:00 0.3 4 Este 15 Este 0 -- -- 95
2020-01-18 04:00:00 0.5 0 Calma 9 Este 0 -- -- 95
2020-01-18 03:00:00 0.6 8 Este 12 Este 0 -- -- 95
2020-01-18 02:00:00 0.2 2 Este 10 Este 0 -- -- 97
2020-01-18 01:00:00 -0.3 5 Sudeste 12 Este 0 -- -- 95
2020-01-18 00:00:00 0.1 2 Nordeste 9 Este 0 -- -- 95
2020-01-17 23:00:00 0.6 0 Calma 9 Este 0 -- -- 93
2020-01-17 22:00:00 1.1 3 Sudeste 6 Noroeste 0 -- -- 93
2020-01-17 21:00:00 2.1 0 Calma 5 Este 0 -- -- 90
2020-01-17 20:00:00 2.9 0 Calma 9 Sudeste 0 -- -- 87
2020-01-17 19:00:00 4 3 Sur 13 Sudoeste 0 -- -- 81
2020-01-17 18:00:00 5.7 6 Oeste 27 Norte 0 -- -- 70
2020-01-17 17:00:00 7 10 Norte 18 Norte 0 -- -- 66
2020-01-17 16:00:00 8 12 Norte 22 Norte 0 -- -- 57
2020-01-17 15:00:00 8.1 10 Norte 28 Norte 0 -- -- 60
2020-01-17 14:00:00 8.1 18 Noroeste 30 Noroeste 0 -- -- 64
2020-01-17 13:00:00 7.3 16 Norte 36 Norte 0 -- -- 70
2020-01-17 12:00:00 6.8 12 Norte 22 Nordeste 0 -- -- 72
2020-01-17 11:00:00 5.7 9 Norte 24 Norte 0 -- -- 81
2020-01-17 10:00:00 4.1 14 Noroeste 25 Noroeste 0 -- -- 88
2020-01-17 09:00:00 3.1 8 Nordeste 17 Norte 0 -- -- 91
2020-01-17 08:00:00 3.7 5 Norte 19 Noroeste 0 -- -- 91
2020-01-17 07:00:00 4.5 8 Norte 20 Norte 0 -- -- 92
2020-01-17 06:00:00 4.9 7 Norte 21 Norte 0.2 -- -- 93
2020-01-17 05:00:00 4.8 12 Norte 31 Norte 1.6 -- -- 91
2020-01-17 04:00:00 6.3 13 Norte 33 Noroeste 0 -- -- 90
2020-01-17 03:00:00 6.6 8 Noroeste 30 Norte 0 -- -- 88
2020-01-17 02:00:00 6.8 15 Norte 31 Norte 0 -- -- 87
2020-01-17 01:00:00 6.9 14 Noroeste 35 Oeste 0 -- -- 86
2020-01-17 00:00:00 6.9 13 Noroeste 36 Norte 0 -- -- 88
2020-01-16 23:00:00 7 16 Noroeste 40 Oeste 0 -- -- 87
2020-01-16 22:00:00 7.5 12 Norte 37 Noroeste 0 -- -- 80
2020-01-16 21:00:00 7.9 17 Norte 40 Norte 0 -- -- 75
2020-01-16 20:00:00 8.1 15 Norte 42 Noroeste 0 -- -- 72
2020-01-16 19:00:00 8.6 15 Norte 39 Noroeste 0 -- -- 67
2020-01-16 18:00:00 9.2 14 Noroeste 44 Noroeste 0 -- -- 66
2020-01-16 17:00:00 10.6 20 Noroeste 50 Noroeste 0 -- -- 65
2020-01-16 16:00:00 11.6 22 Noroeste 53 Noroeste 0 -- -- 62
2020-01-16 15:00:00 11.4 17 Noroeste 52 Noroeste 0 -- -- 66
2020-01-16 14:00:00 11.2 21 Noroeste 47 Oeste 0.2 -- -- 68
2020-01-16 13:00:00 8.8 10 Norte 34 Noroeste 0 -- -- 91
2020-01-16 12:00:00 8.2 10 Oeste 33 Noroeste 0 -- -- 92
2020-01-16 11:00:00 7.6 10 Noroeste 28 Oeste 0 -- -- 95
2020-01-16 10:00:00 6.8 10 Oeste 22 Oeste 0 -- -- 97
2020-01-16 09:00:00 6.6 9 Noroeste 19 Noroeste 0 -- -- 97
2020-01-16 08:00:00 6.7 6 Oeste 18 Noroeste 0 -- -- 95
2020-01-16 07:00:00 7.2 10 Noroeste 22 Oeste 0 -- -- 96
2020-01-16 06:00:00 7.2 6 Noroeste 18 Noroeste 0.2 -- -- 96
2020-01-16 05:00:00 7.2 7 Noroeste 24 Noroeste 0 -- -- 96
2020-01-16 04:00:00 7.1 10 Noroeste 21 Sudoeste 0 -- -- 98
2020-01-16 03:00:00 7.1 8 Noroeste 21 Norte 0 -- -- 97
2020-01-16 02:00:00 7.4 13 Norte 24 Norte 0.4 -- -- 96
2020-01-16 01:00:00 7 4 Noroeste 16 Oeste 0 -- -- 96
2020-01-16 00:00:00 7.4 6 Norte 21 Noroeste 0 -- -- 96
2020-01-15 23:00:00 7.2 7 Norte 22 Oeste 0 -- -- 95
2020-01-15 22:00:00 7.4 7 Norte 19 Norte 0 -- -- 94
2020-01-15 21:00:00 7.1 9 Norte 19 Noroeste 0 -- -- 94
2020-01-15 20:00:00 7.3 5 Norte 19 Norte 0 -- -- 91
2020-01-15 19:00:00 7.6 8 Norte 20 Norte 0 -- -- 88
2020-01-15 18:00:00 8.1 8 Norte 16 Norte 0 -- -- 86
2020-01-15 17:00:00 8 7 Norte 31 Noroeste 0 -- -- 87
2020-01-15 16:00:00 8.1 15 Noroeste 30 Nordeste 0 -- -- 84
2020-01-15 15:00:00 8.3 16 Norte 29 Noroeste 0 -- -- 81
2020-01-15 14:00:00 8.2 15 Norte 33 Norte 0 -- -- 81
2020-01-15 13:00:00 8 13 Norte 35 Norte 0 -- -- 85
2020-01-15 12:00:00 6.6 9 Norte 39 Noroeste 0 -- -- 93
2020-01-15 11:00:00 6 17 Noroeste 40 Oeste 0.4 -- -- 94
2020-01-15 10:00:00 6.1 13 Noroeste 36 Oeste 0 -- -- 91
2020-01-15 09:00:00 6.1 15 Noroeste 39 Norte 0 -- -- 90
2020-01-15 08:00:00 6 15 Noroeste 51 Noroeste 0 -- -- 89
2020-01-15 07:00:00 5.9 18 Noroeste 54 Noroeste 0 -- -- 89
2020-01-15 06:00:00 6.1 18 Noroeste 57 Noroeste 0 -- -- 90
2020-01-15 05:00:00 6.1 15 Noroeste 42 Noroeste 0 -- -- 91
2020-01-15 04:00:00 5.9 16 Noroeste 39 Noroeste 0 -- -- 93
2020-01-15 03:00:00 6 18 Noroeste 39 Norte 0.2 -- -- 94
2020-01-15 02:00:00 5.7 10 Noroeste 39 Noroeste 0.2 -- -- 94
2020-01-15 01:00:00 5.7 14 Norte 40 Noroeste 0 -- -- 92
2020-01-15 00:00:00 5.5 12 Norte 28 Norte 0 -- -- 92
2020-01-14 23:00:00 5.2 11 Noroeste 29 Noroeste 0 -- -- 92
2020-01-14 22:00:00 5.7 12 Norte 31 Norte 0 -- -- 88
2020-01-14 21:00:00 6 10 Noroeste 28 Noroeste 0 -- -- 85
2020-01-14 20:00:00 6.3 8 Noroeste 24 Oeste 0 -- -- 85
2020-01-14 19:00:00 6.3 9 Noroeste 28 Noroeste 0 -- -- 83
2020-01-14 18:00:00 6.4 12 Noroeste 29 Oeste 0 -- -- 82
2020-01-14 17:00:00 6.5 11 Noroeste 28 Noroeste 0 -- -- 85
2020-01-14 16:00:00 5.9 10 Noroeste 35 Norte 0 -- -- 87
2020-01-14 15:00:00 5.6 11 Norte 30 Noroeste 0 -- -- 86
2020-01-14 14:00:00 4.6 15 Norte 26 Norte 0 -- -- 89
2020-01-14 13:00:00 3 11 Norte 32 Norte 0 -- -- 93
2020-01-14 12:00:00 2.8 13 Norte 27 Norte 0 -- -- 93
2020-01-14 11:00:00 2.5 16 Norte 28 Norte 0 -- -- 97
2020-01-14 10:00:00 2.2 14 Norte 26 Norte 0 -- -- 98
2020-01-14 09:00:00 1.9 10 Norte 20 Noroeste 0 -- -- 98
2020-01-14 08:00:00 1.8 12 Norte 23 Norte 0 -- -- 98
2020-01-14 07:00:00 1.6 13 Norte 22 Norte 0 -- -- 98
2020-01-14 06:00:00 1.3 9 Norte 21 Noroeste 0 -- -- 98
2020-01-14 05:00:00 1.2 10 Norte 25 Noroeste 0 -- -- 98
2020-01-14 04:00:00 1.2 15 Norte 23 Noroeste 0 -- -- 96
2020-01-14 03:00:00 1 12 Noroeste 22 Norte 0 -- -- 96
2020-01-14 02:00:00 0.8 5 Norte 26 Noroeste 0 -- -- 96
2020-01-14 01:00:00 0.5 10 Norte 21 Norte 0 -- -- 95
2020-01-14 00:00:00 0.3 6 Noroeste 19 Noroeste 0 -- -- 92
2020-01-13 23:00:00 0.6 12 Norte 23 Norte 0 -- -- 90
2020-01-13 22:00:00 0.5 11 Norte 23 Norte 0 -- -- 90
2020-01-13 21:00:00 -0.2 17 Norte 26 Noroeste 0 -- -- 89
2020-01-13 20:00:00 -0.9 16 Noroeste 27 Norte 0 -- -- 92
2020-01-13 19:00:00 -0.7 14 Noroeste 28 Noroeste 0 -- -- 94
2020-01-13 18:00:00 -0.4 16 Noroeste 32 Noroeste 0 -- -- 94
2020-01-13 17:00:00 -0.2 12 Oeste 30 Oeste 0 -- -- 92
2020-01-13 16:00:00 1.6 15 Noroeste 35 Oeste 0 -- -- 84
2020-01-13 15:00:00 1.2 15 Noroeste 31 Noroeste 0 -- -- 84
2020-01-13 14:00:00 1.1 13 Noroeste 31 Noroeste 0 -- -- 84
2020-01-13 13:00:00 0.3 18 Noroeste 27 Noroeste 0 -- -- 90
2020-01-13 12:00:00 0.5 13 Noroeste 19 Noroeste 0 -- -- 87
2020-01-13 11:00:00 -2 7 Sudeste 11 Sudeste 0 -- -- 97
2020-01-13 10:00:00 -3.5 0 Calma 6 Noroeste 0 -- -- 98
2020-01-13 09:00:00 -4.1 0 Calma 9 Oeste 0 -- -- 98
2020-01-13 08:00:00 -4.5 0 Calma 6 Sudoeste 0 -- -- 97
2020-01-13 07:00:00 -4.5 2 Nordeste 13 Norte 0 -- -- 97
2020-01-13 06:00:00 -4.3 4 Oeste 10 Noroeste 0 -- -- 97
2020-01-13 05:00:00 -5.8 0 Calma 4 Este 0 -- -- 94
2020-01-13 04:00:00 -4.9 0 Calma 7 Sudoeste 0 -- -- 94
2020-01-13 03:00:00 -4.5 2 Sudeste 8 Oeste 0 -- -- 96
2020-01-13 02:00:00 -4.7 0 Calma 3 Noroeste 0 -- -- 94
2020-01-13 01:00:00 -4 0 Calma 2 Sudeste 0 -- -- 94
2020-01-13 00:00:00 -3.4 0 Calma 7 Este 0 -- -- 94
2020-01-12 23:00:00 -2.9 0 Calma 2 Nordeste 0 -- -- 95
2020-01-12 22:00:00 -2.3 0 Calma 2 Norte 0 -- -- 94
2020-01-12 21:00:00 -1.2 0 Calma 3 Este 0 -- -- 93
2020-01-12 20:00:00 0.4 0 Calma 3 Este 0 -- -- 90
2020-01-12 19:00:00 2.6 0 Calma 3 Noroeste 0 -- -- 85
2020-01-12 18:00:00 6.2 0 Calma 2 Noroeste 0 -- -- 80
2020-01-12 17:00:00 9.3 0 Calma 6 Oeste 0 -- -- 71
2020-01-12 16:00:00 9.3 4 Oeste 8 Oeste 0 -- -- 69
2020-01-12 15:00:00 8 4 Sudoeste 10 Sur 0 -- -- 71
2020-01-12 14:00:00 4.9 7 Sur 11 Sur 0 -- -- 87
2020-01-12 13:00:00 2 5 Sudoeste 8 Sur 0 -- -- 96
2020-01-12 12:00:00 -0.6 3 Sudoeste 6 Sudoeste 0 -- -- 100
2020-01-12 11:00:00 -2.3 2 Sudoeste 5 Oeste 0 -- -- 100
2020-01-12 10:00:00 -3.3 4 Oeste 7 Noroeste 0 -- -- 99
2020-01-12 09:00:00 -3.1 0 Calma 9 Oeste 0 -- -- 99
2020-01-12 08:00:00 -3.1 0 Calma 5 Sudeste 0 -- -- 99
2020-01-12 07:00:00 -3.3 0 Calma 8 Oeste 0 -- -- 99
2020-01-12 06:00:00 -3.1 5 Noroeste 8 Noroeste 0 -- -- 98
2020-01-12 05:00:00 -3.2 2 Este 5 Oeste 0 -- -- 99
2020-01-12 04:00:00 -4.6 2 Sudeste 4 Sur 0 -- -- 97
2020-01-12 03:00:00 -5.1 2 Sudeste 10 Este 0 -- -- 93
2020-01-12 02:00:00 -4.2 0 Calma 12 Este 0 -- -- 92
2020-01-12 01:00:00 -3.1 0 Calma 10 Este 0 -- -- 94
2020-01-12 00:00:00 -2.1 5 Este 13 Este 0 -- -- 93
2020-01-11 23:00:00 -1.3 7 Este 13 Este 0 -- -- 94
2020-01-11 22:00:00 -1.2 5 Este 11 Este 0 -- -- 95
2020-01-11 21:00:00 -0.5 0 Calma 6 Este 0 -- -- 92
2020-01-11 20:00:00 0.8 0 Calma 5 Sudeste 0 -- -- 90
2020-01-11 19:00:00 3.2 0 Calma 5 Oeste 0 -- -- 84
2020-01-11 18:00:00 6 0 Calma 9 Oeste 0 -- -- 78
2020-01-11 17:00:00 8.7 5 Noroeste 10 Oeste 0 -- -- 69
2020-01-11 16:00:00 9.9 3 Noroeste 12 Oeste 0 -- -- 63
2020-01-11 15:00:00 8.8 5 Norte 11 Noroeste 0 -- -- 65
2020-01-11 14:00:00 7.6 3 Oeste 8 Oeste 0 -- -- 73
2020-01-11 13:00:00 5.4 5 Noroeste 9 Noroeste 0 -- -- 81
2020-01-11 12:00:00 2.6 6 Norte 10 Noroeste 0 -- -- 86
2020-01-11 11:00:00 -0.4 0 Calma 5 Sudeste 0 -- -- 94
2020-01-11 10:00:00 -4.2 2 Este 5 Este 0 -- -- 96
2020-01-11 09:00:00 -6.3 2 Sudeste 9 Este 0 -- -- 94
2020-01-11 08:00:00 -5.9 0 Calma 9 Sudeste 0 -- -- 94
2020-01-11 07:00:00 -5.1 8 Este 10 Este 0 -- -- 96
2020-01-11 06:00:00 -4.7 2 Este 13 Sudeste 0 -- -- 95
2020-01-11 05:00:00 -4 8 Este 11 Este 0 -- -- 95
2020-01-11 04:00:00 -3.3 4 Este 17 Este 0 -- -- 96
2020-01-11 03:00:00 -2.5 7 Este 12 Este 0 -- -- 97
2020-01-11 02:00:00 -1.9 5 Este 12 Este 0 -- -- 97
2020-01-11 01:00:00 -1.3 9 Este 14 Este 0 -- -- 97
2020-01-11 00:00:00 -0.1 7 Este 14 Sudeste 0 -- -- 98
2020-01-10 23:00:00 -0.5 0 Calma 10 Este 0 -- -- 95
2020-01-10 22:00:00 0.8 5 Este 8 Este 0 -- -- 96
2020-01-10 21:00:00 1.7 0 Calma 8 Sur 0 -- -- 91
2020-01-10 20:00:00 3 3 Sur 7 Sudeste 0 -- -- 92
2020-01-10 19:00:00 3.5 3 Sudoeste 20 Sur 0 -- -- 89
2020-01-10 18:00:00 4.8 7 Sur 19 Sudeste 0 -- -- 77
2020-01-10 17:00:00 5.6 8 Sur 22 Sudeste 0 -- -- 71
2020-01-10 16:00:00 7.8 8 Sudeste 24 Sudeste 0 -- -- 63
2020-01-10 15:00:00 8 10 Sudeste 25 Sudeste 0 -- -- 64
2020-01-10 14:00:00 7.1 5 Sur 12 Sur 0 -- -- 67
2020-01-10 13:00:00 7.2 8 Oeste 14 Sudoeste 0 -- -- 69
2020-01-10 12:00:00 5 5 Sudoeste 12 Sudoeste 0 -- -- 97
2020-01-10 11:00:00 1.1 3 Sudeste 8 Sudeste 0 -- -- 100
2020-01-10 10:00:00 0.2 2 Sur 5 Este 0 -- -- 100
2020-01-10 09:00:00 -0.3 2 Sudeste 13 Sudeste 0 -- -- 100
2020-01-10 08:00:00 -0.1 4 Nordeste 12 Sudeste 0 -- -- 100
2020-01-10 07:00:00 -0.3 9 Este 15 Este 0 -- -- 99
2020-01-10 06:00:00 0.1 5 Este 12 Este 0 -- -- 99
2020-01-10 05:00:00 -0.1 9 Este 14 Este 0 -- -- 99
2020-01-10 04:00:00 0.1 3 Nordeste 9 Este 0 -- -- 98
2020-01-10 03:00:00 1 0 Calma 8 Este 0 -- -- 98
2020-01-10 02:00:00 1.3 3 Este 10 Este 0 -- -- 97
2020-01-10 01:00:00 2.2 0 Calma 9 Sudeste 0 -- -- 97
2020-01-10 00:00:00 3.4 3 Norte 16 Sur 0 -- -- 96
2020-01-09 23:00:00 4.1 3 Sudeste 10 Sudeste 0 -- -- 97
2020-01-09 22:00:00 5.3 5 Sur 12 Sur 0 -- -- 97
2020-01-09 21:00:00 5 2 Sudeste 10 Este 0 -- -- 96
2020-01-09 20:00:00 5.8 3 Noroeste 9 Noroeste 0 -- -- 96
2020-01-09 19:00:00 5.6 5 Oeste 8 Oeste 0 -- -- 97
2020-01-09 18:00:00 5.6 3 Sur 17 Oeste 0 -- -- 95
2020-01-09 17:00:00 5.3 9 Oeste 30 Oeste 0 -- -- 94
2020-01-09 16:00:00 6.6 15 Noroeste 25 Noroeste 0 -- -- 84
2020-01-09 15:00:00 7.8 14 Oeste 31 Oeste 0 -- -- 76
2020-01-09 14:00:00 7 17 Noroeste 32 Oeste 0 -- -- 80
2020-01-09 13:00:00 6.5 18 Noroeste 33 Noroeste 0 -- -- 79
2020-01-09 12:00:00 5.8 12 Sudoeste 19 Oeste 0 -- -- 82
2020-01-09 11:00:00 3.5 6 Sudoeste 10 Oeste 0 -- -- 97
2020-01-09 10:00:00 1.8 0 Calma 4 Norte 0 -- -- 99
2020-01-09 09:00:00 0.4 0 Calma 6 Sur 0 -- -- 99
2020-01-09 08:00:00 0.2 2 Sudoeste 10 Norte 0 -- -- 98
2020-01-09 07:00:00 0.6 0 Calma 7 Noroeste 0 -- -- 98
2020-01-09 06:00:00 1 5 Norte 8 Norte 0 -- -- 99
2020-01-09 05:00:00 -1.3 0 Calma 4 Sudeste 0 -- -- 97
2020-01-09 04:00:00 -1.1 0 Calma 4 Sudeste 0 -- -- 96
2020-01-09 03:00:00 -0.9 0 Calma 8 Este 0 -- -- 94
2020-01-09 02:00:00 0.5 6 Este 12 Este 0 -- -- 95
2020-01-09 01:00:00 0.5 3 Este 6 Este 0 -- -- 92
2020-01-09 00:00:00 1.2 2 Este 11 Este 0 -- -- 90
2020-01-08 23:00:00 2.4 6 Este 12 Este 0 -- -- 89
2020-01-08 22:00:00 2.2 3 Este 9 Este 0 -- -- 87
2020-01-08 21:00:00 3.1 0 Calma 4 Sudeste 0 -- -- 85
2020-01-08 20:00:00 4.1 0 Calma 6 Este 0 -- -- 85
2020-01-08 19:00:00 5.9 0 Calma 2 Norte 0 -- -- 76
2020-01-08 18:00:00 8.6 0 Calma 3 Norte 0 -- -- 71
2020-01-08 17:00:00 12.2 2 Norte 7 Norte 0 -- -- 66
2020-01-08 16:00:00 12.9 6 Norte 8 Norte 0 -- -- 57
2020-01-08 15:00:00 13.2 5 Norte 8 Norte 0 -- -- 52
2020-01-08 14:00:00 12.4 4 Sudoeste 8 Sudoeste 0 -- -- 49
2020-01-08 13:00:00 8.6 7 Noroeste 10 Noroeste 0 -- -- 66
2020-01-08 12:00:00 5.8 5 Noroeste 9 Norte 0 -- -- 76
2020-01-08 11:00:00 1.9 2 Este 8 Este 0 -- -- 89
2020-01-08 10:00:00 -0.1 0 Calma 13 Este 0 -- -- 93
2020-01-08 09:00:00 -2.3 2 Nordeste 10 Este 0 -- -- 95
2020-01-08 08:00:00 -2.9 0 Calma 8 Sudeste 0 -- -- 96
2020-01-08 07:00:00 -2.7 2 Este 9 Este 0 -- -- 96
2020-01-08 06:00:00 -2.5 0 Calma 11 Este 0 -- -- 96
2020-01-08 05:00:00 -2.5 0 Calma 8 Sudeste 0 -- -- 96
2020-01-08 04:00:00 -2.4 3 Este 9 Este 0 -- -- 96
2020-01-08 03:00:00 -2.2 0 Calma 8 Este 0 -- -- 96
2020-01-08 02:00:00 -2.2 2 Este 9 Este 0 -- -- 96
2020-01-08 01:00:00 -2 3 Nordeste 9 Este 0 -- -- 96
2020-01-08 00:00:00 -1.8 0 Calma 3 Nordeste 0 -- -- 95
2020-01-07 23:00:00 -1.3 4 Este 8 Este 0 -- -- 95
2020-01-07 22:00:00 -1 0 Calma 3 Sur 0 -- -- 93
2020-01-07 21:00:00 -0.2 0 Calma 10 Este 0 -- -- 92
2020-01-07 20:00:00 1 0 Calma 4 Este 0 -- -- 88
2020-01-07 19:00:00 3.3 0 Calma 4 Oeste 0 -- -- 83
2020-01-07 18:00:00 6.4 0 Calma 6 Sudoeste 0 -- -- 77
2020-01-07 17:00:00 9.5 4 Sudoeste 8 Oeste 0 -- -- 65
2020-01-07 16:00:00 10.8 3 Oeste 8 Sudoeste 0 -- -- 61
2020-01-07 15:00:00 11.1 6 Oeste 10 Oeste 0 -- -- 61
2020-01-07 14:00:00 10 4 Sudoeste 10 Oeste 0 -- -- 65
2020-01-07 13:00:00 7.3 3 Sur 6 Sur 0 -- -- 75
2020-01-07 12:00:00 4.2 2 Oeste 5 Sudoeste 0 -- -- 85
2020-01-07 11:00:00 0.3 2 Sudoeste 14 Sudeste 0 -- -- 95
2020-01-07 10:00:00 -3.6 2 Este 10 Este 0 -- -- 98
2020-01-07 09:00:00 -4.7 0 Calma 10 Este 0 -- -- 96
2020-01-07 08:00:00 -4.7 5 Este 11 Este 0 -- -- 97
2020-01-07 07:00:00 -4.7 3 Este 8 Sudeste 0 -- -- 96
2020-01-07 06:00:00 -4.4 4 Sudeste 9 Este 0 -- -- 97
2020-01-07 05:00:00 -4.4 0 Calma 5 Sudeste 0 -- -- 97
2020-01-07 04:00:00 -4 0 Calma 6 Este 0 -- -- 97
2020-01-07 03:00:00 -3.6 5 Sudeste 15 Este 0 -- -- 98
2020-01-07 02:00:00 -2.8 2 Este 5 Sudeste 0 -- -- 99
2020-01-07 01:00:00 -2.7 0 Calma 13 Este 0 -- -- 99
2020-01-07 00:00:00 -2 7 Este 10 Este 0 -- -- 99
2020-01-06 23:00:00 -1.5 7 Este 12 Este 0 -- -- 99
2020-01-06 22:00:00 -1.8 7 Este 12 Sudeste 0 -- -- 99
2020-01-06 21:00:00 -1.5 0 Calma 4 Sudeste 0 -- -- 98
2020-01-06 20:00:00 -1 0 Calma 6 Este 0 -- -- 97
2020-01-06 19:00:00 -0.1 3 Oeste 9 Noroeste 0 -- -- 96
2020-01-06 18:00:00 0.5 4 Oeste 9 Oeste 0 -- -- 95
2020-01-06 17:00:00 1.5 6 Oeste 16 Oeste 0 -- -- 92
2020-01-06 16:00:00 2.4 6 Sudoeste 15 Oeste 0 -- -- 88
2020-01-06 15:00:00 3.6 8 Oeste 12 Oeste 0 -- -- 84
2020-01-06 14:00:00 2.2 8 Sudoeste 13 Sudoeste 0 -- -- 88
2020-01-06 13:00:00 0.4 6 Oeste 13 Oeste 0 -- -- 96
2020-01-06 12:00:00 -1 5 Oeste 10 Noroeste 0 -- -- 98
2020-01-06 11:00:00 -2 0 Calma 7 Noroeste 0 -- -- 99
2020-01-06 10:00:00 -3.3 4 Norte 10 Oeste 0 -- -- 98